Time,TemperatureF,DewpointF,PressureIn,WindDirection,WindDirectionDegrees,WindSpeedMPH,WindSpeedGustMPH,Humidity,HourlyPrecipIn,Conditions,Clouds,dailyrainin,SoftwareType,DateUTC
2013-02-10 00:00:00,39.8,36.2,29.82,South,186,2.0,8.0,87,0.00,,---,0.00,VWS V14.01,2013-02-10 06:00:00,
2013-02-10 00:05:00,39.8,36.2,29.82,SE,145,4.0,8.0,87,0.00,,---,0.00,VWS V14.01,2013-02-10 06:05:00,
2013-02-10 00:10:00,39.7,36.2,29.83,SSE,160,0.0,6.0,87,0.00,,---,0.00,VWS V14.01,2013-02-10 06:10:00,
2013-02-10 00:15:00,39.7,36.4,29.82,SSE,165,5.0,6.0,88,0.00,,---,0.00,VWS V14.01,2013-02-10 06:15:00,
2013-02-10 00:20:00,39.6,36.3,29.83,SSE,166,1.0,4.0,88,0.00,,---,0.00,VWS V14.01,2013-02-10 06:20:00,
2013-02-10 00:25:00,39.6,36.3,29.83,SE,130,4.0,7.0,88,0.00,,---,0.00,VWS V14.01,2013-02-10 06:25:00,
2013-02-10 00:30:00,39.6,36.3,29.84,SSE,152,1.0,7.0,88,0.00,,---,0.00,VWS V14.01,2013-02-10 06:30:00,
2013-02-10 00:31:00,39.6,36.3,29.83,SSE,150,0.0,6.0,88,0.00,,---,0.00,VWS V14.01,2013-02-10 06:31:00,
2013-02-10 00:36:00,39.6,36.6,29.83,SE,133,2.0,6.0,89,0.00,,---,0.00,VWS V14.01,2013-02-10 06:36:00,
2013-02-10 00:40:00,39.7,36.7,29.83,SE,133,0.0,6.0,89,0.00,,---,0.00,VWS V14.01,2013-02-10 06:40:00,
2013-02-10 00:41:00,39.7,36.7,29.83,ENE,59,2.0,2.0,89,0.00,,---,0.00,VWS V14.01,2013-02-10 06:41:00,
2013-02-10 00:46:00,39.7,36.7,29.83,SSE,163,0.0,4.0,89,0.00,,---,0.00,VWS V14.01,2013-02-10 06:46:00,
2013-02-10 00:50:00,39.7,36.7,29.82,NE,56,1.0,4.0,89,0.00,,---,0.00,VWS V14.01,2013-02-10 06:50:00,
2013-02-10 00:51:00,39.7,36.7,29.83,NE,56,0.0,2.0,89,0.00,,---,0.00,VWS V14.01,2013-02-10 06:51:00,
2013-02-10 00:56:00,39.7,36.7,29.83,SSE,155,0.0,5.0,89,0.00,,---,0.00,VWS V14.01,2013-02-10 06:56:00,
2013-02-10 01:00:00,39.7,36.7,29.84,SSE,155,0.0,5.0,89,0.00,,---,0.00,VWS V14.01,2013-02-10 07:00:00,
2013-02-10 01:01:00,39.7,36.7,29.84,SE,133,0.0,2.0,89,0.00,,---,0.00,VWS V14.01,2013-02-10 07:01:00,
2013-02-10 01:06:00,39.7,36.7,29.84,NE,52,0.0,4.0,89,0.00,,---,0.00,VWS V14.01,2013-02-10 07:06:00,
2013-02-10 01:10:00,39.7,36.7,29.84,ESE,109,0.0,4.0,89,0.00,,---,0.00,VWS V14.01,2013-02-10 07:10:00,
2013-02-10 01:11:00,39.8,36.8,29.84,ESE,109,0.0,1.0,89,0.00,,---,0.00,VWS V14.01,2013-02-10 07:11:00,
2013-02-10 01:16:00,39.8,36.8,29.83,ESE,109,1.0,2.0,89,0.00,,---,0.00,VWS V14.01,2013-02-10 07:16:00,
2013-02-10 01:20:00,39.8,36.8,29.83,SE,131,0.0,4.0,89,0.00,,---,0.00,VWS V14.01,2013-02-10 07:20:00,
2013-02-10 01:21:00,39.8,36.8,29.83,SE,141,2.0,4.0,89,0.00,,---,0.00,VWS V14.01,2013-02-10 07:21:00,
2013-02-10 01:26:00,39.8,36.8,29.83,SSE,148,0.0,4.0,89,0.00,,---,0.00,VWS V14.01,2013-02-10 07:26:00,
2013-02-10 01:30:00,39.9,37.2,29.83,SSW,210,0.0,5.0,90,0.00,,---,0.00,VWS V14.01,2013-02-10 07:30:00,
2013-02-10 01:31:00,39.9,37.2,29.82,ESE,109,1.0,2.0,90,0.00,,---,0.00,VWS V14.01,2013-02-10 07:31:00,
2013-02-10 01:36:00,39.9,37.2,29.82,ESE,123,0.0,2.0,90,0.00,,---,0.00,VWS V14.01,2013-02-10 07:36:00,
2013-02-10 01:40:00,40.0,37.3,29.82,SE,144,2.0,4.0,90,0.00,,---,0.00,VWS V14.01,2013-02-10 07:40:00,
2013-02-10 01:41:00,40.0,37.3,29.81,SE,144,0.0,2.0,90,0.00,,---,0.00,VWS V14.01,2013-02-10 07:41:00,
2013-02-10 01:46:00,40.0,37.3,29.81,SSE,148,1.0,4.0,90,0.00,,---,0.00,VWS V14.01,2013-02-10 07:46:00,
2013-02-10 01:50:00,40.1,37.7,29.80,ESE,115,1.0,4.0,91,0.00,,---,0.00,VWS V14.01,2013-02-10 07:50:00,
2013-02-10 01:51:00,40.1,37.7,29.79,ESE,114,4.0,7.0,91,0.00,,---,0.00,VWS V14.01,2013-02-10 07:51:00,
2013-02-10 01:56:00,40.2,37.8,29.80,SSW,196,0.0,7.0,91,0.00,,---,0.00,VWS V14.01,2013-02-10 07:56:00,
2013-02-10 02:00:00,40.2,37.8,29.79,South,185,2.0,7.0,91,0.00,,---,0.00,VWS V14.01,2013-02-10 08:00:00,
2013-02-10 02:01:00,40.2,37.8,29.79,SE,141,1.0,5.0,91,0.00,,---,0.00,VWS V14.01,2013-02-10 08:01:00,
2013-02-10 02:06:00,40.2,37.8,29.78,SE,138,1.0,5.0,91,0.00,,---,0.00,VWS V14.01,2013-02-10 08:06:00,
2013-02-10 02:10:00,40.3,37.9,29.78,ESE,119,1.0,5.0,91,0.00,,---,0.00,VWS V14.01,2013-02-10 08:10:00,
2013-02-10 02:11:00,40.3,37.9,29.78,ESE,106,1.0,6.0,91,0.00,,---,0.00,VWS V14.01,2013-02-10 08:11:00,
2013-02-10 02:16:00,40.4,38.0,29.78,ESE,113,0.0,6.0,91,0.00,,---,0.00,VWS V14.01,2013-02-10 08:16:00,
2013-02-10 02:20:00,40.4,38.3,29.78,ESE,113,0.0,6.0,92,0.00,,---,0.00,VWS V14.01,2013-02-10 08:20:00,
2013-02-10 02:21:00,40.4,38.3,29.77,ESE,119,0.0,4.0,92,0.00,,---,0.00,VWS V14.01,2013-02-10 08:21:00,
2013-02-10 02:26:00,40.5,38.4,29.78,SSE,154,4.0,5.0,92,0.00,,---,0.00,VWS V14.01,2013-02-10 08:26:00,
2013-02-10 02:30:00,40.5,38.4,29.78,WSW,238,2.0,5.0,92,0.00,,---,0.00,VWS V14.01,2013-02-10 08:30:00,
2013-02-10 02:31:00,40.6,38.5,29.78,WSW,238,0.0,3.0,92,0.00,,---,0.00,VWS V14.01,2013-02-10 08:31:00,
2013-02-10 02:36:00,40.6,38.5,29.77,WSW,238,0.0,3.0,92,0.00,,---,0.00,VWS V14.01,2013-02-10 08:36:00,
2013-02-10 02:40:00,40.7,38.6,29.78,East,88,0.0,3.0,92,0.00,,---,0.00,VWS V14.01,2013-02-10 08:40:00,
2013-02-10 02:41:00,40.7,38.6,29.77,East,87,0.0,2.0,92,0.00,,---,0.00,VWS V14.01,2013-02-10 08:41:00,
2013-02-10 02:46:00,40.9,39.0,29.77,SE,130,0.0,6.0,93,0.00,,---,0.00,VWS V14.01,2013-02-10 08:46:00,
2013-02-10 02:50:00,40.9,39.0,29.77,SSE,150,2.0,6.0,93,0.00,,---,0.00,VWS V14.01,2013-02-10 08:50:00,
2013-02-10 02:51:00,41.0,39.1,29.76,SSE,150,0.0,2.0,93,0.00,,---,0.00,VWS V14.01,2013-02-10 08:51:00,
2013-02-10 02:56:00,41.0,39.1,29.76,SSE,150,1.0,6.0,93,0.00,,---,0.00,VWS V14.01,2013-02-10 08:56:00,
2013-02-10 03:00:00,41.1,39.2,29.75,South,182,0.0,6.0,93,0.00,,---,0.00,VWS V14.01,2013-02-10 09:00:00,
2013-02-10 03:01:00,41.1,39.2,29.75,SSE,148,2.0,4.0,93,0.00,,---,0.00,VWS V14.01,2013-02-10 09:01:00,
2013-02-10 03:06:00,41.1,39.2,29.73,SSE,157,1.0,6.0,93,0.00,,---,0.00,VWS V14.01,2013-02-10 09:06:00,
2013-02-10 03:10:00,41.1,39.2,29.71,ESE,106,2.0,6.0,93,0.00,,---,0.00,VWS V14.01,2013-02-10 09:10:00,
2013-02-10 03:11:00,41.2,39.3,29.70,SE,143,2.0,5.0,93,0.00,,---,0.00,VWS V14.01,2013-02-10 09:11:00,
2013-02-10 03:16:00,41.1,39.2,29.65,SE,138,6.0,6.0,93,0.00,,---,0.00,VWS V14.01,2013-02-10 09:16:00,
2013-02-10 03:20:00,41.1,39.2,29.69,SSW,192,1.0,6.0,93,0.00,,---,0.00,VWS V14.01,2013-02-10 09:20:00,
2013-02-10 03:21:00,41.1,39.2,29.70,SSW,192,1.0,2.0,93,0.00,,---,0.00,VWS V14.01,2013-02-10 09:21:00,
2013-02-10 03:26:00,41.1,39.2,29.69,SSE,156,1.0,5.0,93,0.00,,---,0.00,VWS V14.01,2013-02-10 09:26:00,
2013-02-10 03:30:00,41.1,39.2,29.70,SE,142,1.0,5.0,93,0.00,,---,0.00,VWS V14.01,2013-02-10 09:30:00,
2013-02-10 03:32:00,41.1,39.2,29.69,SE,130,0.0,5.0,93,0.00,,---,0.00,VWS V14.01,2013-02-10 09:32:00,
2013-02-10 03:37:00,41.1,39.2,29.70,SSE,152,1.0,5.0,93,0.00,,---,0.00,VWS V14.01,2013-02-10 09:37:00,
2013-02-10 03:40:00,41.1,39.2,29.70,SSE,152,2.0,5.0,93,0.00,,---,0.00,VWS V14.01,2013-02-10 09:40:00,
2013-02-10 03:42:00,41.1,39.2,29.70,South,184,0.0,5.0,93,0.00,,---,0.00,VWS V14.01,2013-02-10 09:42:00,
2013-02-10 03:47:00,41.1,39.2,29.69,SSE,157,0.0,5.0,93,0.00,,---,0.00,VWS V14.01,2013-02-10 09:47:00,
2013-02-10 03:50:00,41.1,39.2,29.69,SSE,148,0.0,5.0,93,0.00,,---,0.00,VWS V14.01,2013-02-10 09:50:00,
2013-02-10 03:52:00,41.1,39.2,29.68,SSE,148,0.0,1.0,93,0.00,,---,0.00,VWS V14.01,2013-02-10 09:52:00,
2013-02-10 03:57:00,41.2,39.3,29.67,East,94,1.0,6.0,93,0.00,,---,0.00,VWS V14.01,2013-02-10 09:57:00,
2013-02-10 04:00:00,41.2,39.3,29.67,ENE,76,4.0,6.0,93,0.00,,---,0.00,VWS V14.01,2013-02-10 10:00:00,
2013-02-10 04:02:00,41.3,39.4,29.66,SSE,155,2.0,6.0,93,0.00,,---,0.00,VWS V14.01,2013-02-10 10:02:00,
2013-02-10 04:07:00,41.3,39.4,29.65,SE,146,0.0,6.0,93,0.01,,---,0.01,VWS V14.01,2013-02-10 10:07:00,
2013-02-10 04:10:00,41.3,39.4,29.65,SE,135,1.0,6.0,93,0.01,,---,0.01,VWS V14.01,2013-02-10 10:10:00,
2013-02-10 04:12:00,41.3,39.4,29.65,East,96,0.0,5.0,93,0.01,,---,0.01,VWS V14.01,2013-02-10 10:12:00,
2013-02-10 04:17:00,41.3,39.4,29.64,NE,46,1.0,6.0,93,0.01,,---,0.01,VWS V14.01,2013-02-10 10:17:00,
2013-02-10 04:20:00,41.3,39.4,29.65,SSE,157,2.0,6.0,93,0.01,,---,0.01,VWS V14.01,2013-02-10 10:20:00,
2013-02-10 04:22:00,41.4,39.5,29.65,East,94,0.0,4.0,93,0.01,,---,0.01,VWS V14.01,2013-02-10 10:22:00,
2013-02-10 04:27:00,41.4,39.5,29.64,ESE,111,0.0,6.0,93,0.01,,---,0.01,VWS V14.01,2013-02-10 10:27:00,
2013-02-10 04:30:00,41.4,39.5,29.64,ESE,114,1.0,6.0,93,0.01,,---,0.01,VWS V14.01,2013-02-10 10:30:00,
2013-02-10 04:32:00,41.4,39.5,29.63,East,83,0.0,2.0,93,0.01,,---,0.01,VWS V14.01,2013-02-10 10:32:00,
2013-02-10 04:37:00,41.4,39.5,29.64,SE,137,0.0,5.0,93,0.02,,---,0.02,VWS V14.01,2013-02-10 10:37:00,
2013-02-10 04:40:00,41.4,39.5,29.64,SE,137,0.0,5.0,93,0.02,,---,0.02,VWS V14.01,2013-02-10 10:40:00,
2013-02-10 04:42:00,41.4,39.5,29.64,East,80,0.0,2.0,93,0.02,,---,0.02,VWS V14.01,2013-02-10 10:42:00,
2013-02-10 04:47:00,41.4,39.5,29.64,ESE,109,1.0,4.0,93,0.02,,---,0.02,VWS V14.01,2013-02-10 10:47:00,
2013-02-10 04:50:00,41.4,39.5,29.63,SE,136,2.0,6.0,93,0.02,,---,0.02,VWS V14.01,2013-02-10 10:50:00,
2013-02-10 04:52:00,41.4,39.5,29.63,SE,146,1.0,7.0,93,0.02,,---,0.02,VWS V14.01,2013-02-10 10:52:00,
2013-02-10 04:57:00,41.4,39.8,29.63,SE,129,0.0,7.0,94,0.03,,---,0.03,VWS V14.01,2013-02-10 10:57:00,
2013-02-10 05:00:00,41.4,39.8,29.63,South,172,1.0,7.0,94,0.03,,---,0.03,VWS V14.01,2013-02-10 11:00:00,
2013-02-10 05:02:00,41.4,39.8,29.63,East,84,1.0,2.0,94,0.03,,---,0.03,VWS V14.01,2013-02-10 11:02:00,
2013-02-10 05:07:00,41.4,39.8,29.62,South,176,1.0,5.0,94,0.06,,---,0.06,VWS V14.01,2013-02-10 11:07:00,
2013-02-10 05:10:00,41.4,39.8,29.63,SE,126,2.0,5.0,94,0.07,,---,0.07,VWS V14.01,2013-02-10 11:10:00,
2013-02-10 05:12:00,41.4,39.8,29.63,SE,134,2.0,4.0,94,0.07,,---,0.08,VWS V14.01,2013-02-10 11:12:00,
2013-02-10 05:17:00,41.4,39.8,29.61,SSW,195,0.0,9.0,94,0.07,,---,0.08,VWS V14.01,2013-02-10 11:17:00,
2013-02-10 05:20:00,41.4,39.8,29.60,ESE,109,1.0,9.0,94,0.07,,---,0.08,VWS V14.01,2013-02-10 11:20:00,
2013-02-10 05:22:00,41.5,39.9,29.61,SE,128,1.0,5.0,94,0.07,,---,0.08,VWS V14.01,2013-02-10 11:22:00,
2013-02-10 05:27:00,41.5,39.9,29.61,South,173,5.0,6.0,94,0.07,,---,0.08,VWS V14.01,2013-02-10 11:27:00,
2013-02-10 05:30:00,41.5,39.9,29.60,SSE,159,2.0,6.0,94,0.08,,---,0.09,VWS V14.01,2013-02-10 11:30:00,
2013-02-10 05:32:00,41.5,39.9,29.60,SSE,157,0.0,5.0,94,0.08,,---,0.09,VWS V14.01,2013-02-10 11:32:00,
2013-02-10 05:37:00,41.5,39.9,29.60,SE,129,1.0,6.0,94,0.08,,---,0.09,VWS V14.01,2013-02-10 11:37:00,
2013-02-10 05:40:00,41.5,39.9,29.60,SE,129,2.0,6.0,94,0.08,,---,0.09,VWS V14.01,2013-02-10 11:40:00,
2013-02-10 05:42:00,41.6,40.0,29.60,ESE,117,1.0,5.0,94,0.07,,---,0.09,VWS V14.01,2013-02-10 11:42:00,
2013-02-10 05:47:00,41.6,40.0,29.60,SE,146,1.0,5.0,94,0.07,,---,0.09,VWS V14.01,2013-02-10 11:47:00,
2013-02-10 05:50:00,41.6,40.0,29.60,ENE,67,1.0,5.0,94,0.07,,---,0.09,VWS V14.01,2013-02-10 11:50:00,
2013-02-10 05:52:00,41.7,40.1,29.60,SE,133,1.0,6.0,94,0.07,,---,0.09,VWS V14.01,2013-02-10 11:52:00,
2013-02-10 05:57:00,41.8,40.2,29.58,SSE,149,4.0,6.0,94,0.07,,---,0.09,VWS V14.01,2013-02-10 11:57:00,
2013-02-10 06:00:00,41.8,40.2,29.58,SSE,165,2.0,6.0,94,0.07,,---,0.09,VWS V14.01,2013-02-10 12:00:00,
2013-02-10 06:02:00,41.9,40.3,29.58,SSE,163,0.0,4.0,94,0.06,,---,0.09,VWS V14.01,2013-02-10 12:02:00,
2013-02-10 06:07:00,42.0,40.4,29.58,SE,138,1.0,4.0,94,0.06,,---,0.09,VWS V14.01,2013-02-10 12:07:00,
2013-02-10 06:10:00,42.0,40.4,29.58,South,169,4.0,5.0,94,0.06,,---,0.09,VWS V14.01,2013-02-10 12:10:00,
2013-02-10 06:12:00,42.1,40.5,29.58,SE,140,2.0,4.0,94,0.02,,---,0.09,VWS V14.01,2013-02-10 12:12:00,
2013-02-10 06:18:00,42.2,40.6,29.58,ESE,120,0.0,6.0,94,0.02,,---,0.09,VWS V14.01,2013-02-10 12:18:00,
2013-02-10 06:20:00,42.2,40.9,29.58,SSE,167,2.0,6.0,95,0.02,,---,0.09,VWS V14.01,2013-02-10 12:20:00,
2013-02-10 06:23:00,42.4,41.1,29.58,South,184,1.0,5.0,95,0.01,,---,0.09,VWS V14.01,2013-02-10 12:23:00,
2013-02-10 06:28:00,42.5,41.2,29.58,South,188,2.0,6.0,95,0.01,,---,0.09,VWS V14.01,2013-02-10 12:28:00,
2013-02-10 06:30:00,42.5,41.2,29.58,South,188,0.0,6.0,95,0.01,,---,0.09,VWS V14.01,2013-02-10 12:30:00,
2013-02-10 06:33:00,42.7,41.4,29.57,SSE,157,2.0,5.0,95,0.00,,---,0.09,VWS V14.01,2013-02-10 12:33:00,
2013-02-10 06:38:00,42.9,41.6,29.57,ENE,76,4.0,5.0,95,0.00,,---,0.09,VWS V14.01,2013-02-10 12:38:00,
2013-02-10 06:40:00,42.9,41.6,29.57,SE,144,2.0,6.0,95,0.00,,---,0.09,VWS V14.01,2013-02-10 12:40:00,
2013-02-10 06:43:00,43.1,41.8,29.57,SSE,164,1.0,7.0,95,0.00,,---,0.09,VWS V14.01,2013-02-10 12:43:00,
2013-02-10 06:48:00,43.2,41.9,29.57,South,176,2.0,10.0,95,0.00,,---,0.09,VWS V14.01,2013-02-10 12:48:00,
2013-02-10 06:50:00,43.2,41.9,29.57,SSE,159,1.0,10.0,95,0.00,,---,0.09,VWS V14.01,2013-02-10 12:50:00,
2013-02-10 06:53:00,43.3,42.0,29.56,SE,146,1.0,7.0,95,0.00,,---,0.09,VWS V14.01,2013-02-10 12:53:00,
2013-02-10 06:58:00,43.4,42.1,29.56,SSE,162,2.0,7.0,95,0.00,,---,0.09,VWS V14.01,2013-02-10 12:58:00,
2013-02-10 07:00:00,43.5,42.2,29.56,SSE,162,1.0,7.0,95,0.00,,---,0.09,VWS V14.01,2013-02-10 13:00:00,
2013-02-10 07:03:00,43.5,42.2,29.56,SSW,192,2.0,5.0,95,0.00,,---,0.09,VWS V14.01,2013-02-10 13:03:00,
2013-02-10 07:08:00,43.6,42.3,29.56,SE,140,4.0,5.0,95,0.00,,---,0.09,VWS V14.01,2013-02-10 13:08:00,
2013-02-10 07:10:00,43.6,42.3,29.56,SE,126,2.0,5.0,95,0.00,,---,0.09,VWS V14.01,2013-02-10 13:10:00,
2013-02-10 07:13:00,43.7,42.4,29.55,SSW,210,1.0,6.0,95,0.00,,---,0.09,VWS V14.01,2013-02-10 13:13:00,
2013-02-10 07:18:00,43.8,42.5,29.55,SSW,206,1.0,6.0,95,0.00,,---,0.09,VWS V14.01,2013-02-10 13:18:00,
2013-02-10 07:20:00,43.8,42.5,29.55,SSW,206,0.0,6.0,95,0.00,,---,0.09,VWS V14.01,2013-02-10 13:20:00,
2013-02-10 07:23:00,43.9,42.6,29.55,South,190,1.0,4.0,95,0.00,,---,0.09,VWS V14.01,2013-02-10 13:23:00,
2013-02-10 07:28:00,44.0,42.7,29.55,South,187,1.0,4.0,95,0.00,,---,0.09,VWS V14.01,2013-02-10 13:28:00,
2013-02-10 07:30:00,44.0,42.7,29.56,South,188,1.0,4.0,95,0.00,,---,0.09,VWS V14.01,2013-02-10 13:30:00,
2013-02-10 07:33:00,44.2,42.9,29.55,SSW,198,2.0,5.0,95,0.00,,---,0.09,VWS V14.01,2013-02-10 13:33:00,
2013-02-10 07:38:00,44.3,43.0,29.55,South,188,0.0,5.0,95,0.00,,---,0.09,VWS V14.01,2013-02-10 13:38:00,
2013-02-10 07:40:00,44.3,43.0,29.55,South,188,0.0,5.0,95,0.00,,---,0.09,VWS V14.01,2013-02-10 13:40:00,
2013-02-10 07:43:00,44.5,43.2,29.55,SW,228,2.0,8.0,95,0.00,,---,0.09,VWS V14.01,2013-02-10 13:43:00,
2013-02-10 07:48:00,44.7,43.4,29.55,South,189,0.0,8.0,95,0.01,,---,0.10,VWS V14.01,2013-02-10 13:48:00,
2013-02-10 07:50:00,44.7,43.4,29.55,South,189,1.0,8.0,95,0.01,,---,0.10,VWS V14.01,2013-02-10 13:50:00,
2013-02-10 07:53:00,44.9,43.6,29.55,SE,136,1.0,8.0,95,0.01,,---,0.10,VWS V14.01,2013-02-10 13:53:00,
2013-02-10 07:58:00,45.2,43.9,29.55,South,173,1.0,8.0,95,0.01,,---,0.10,VWS V14.01,2013-02-10 13:58:00,
2013-02-10 08:00:00,45.2,43.9,29.54,SW,222,3.0,8.0,95,0.01,,---,0.10,VWS V14.01,2013-02-10 14:00:00,
2013-02-10 08:03:00,45.3,44.0,29.54,SSE,163,1.0,10.0,95,0.01,,---,0.10,VWS V14.01,2013-02-10 14:03:00,
2013-02-10 08:08:00,45.4,44.0,29.54,West,264,2.0,10.0,95,0.01,,---,0.10,VWS V14.01,2013-02-10 14:08:00,
2013-02-10 08:10:00,45.4,44.1,29.54,West,259,2.0,10.0,95,0.01,,---,0.10,VWS V14.01,2013-02-10 14:10:00,
2013-02-10 08:14:00,45.5,44.2,29.54,SW,225,2.0,6.0,95,0.01,,---,0.10,VWS V14.01,2013-02-10 14:14:00,
2013-02-10 08:19:00,45.6,44.2,29.53,SSW,198,0.0,6.0,95,0.01,,---,0.10,VWS V14.01,2013-02-10 14:19:00,
2013-02-10 08:20:00,45.6,44.2,29.53,SSW,198,0.0,6.0,95,0.01,,---,0.10,VWS V14.01,2013-02-10 14:20:00,
2013-02-10 08:24:00,45.8,44.5,29.53,WSW,250,1.0,6.0,95,0.01,,---,0.10,VWS V14.01,2013-02-10 14:24:00,
2013-02-10 08:29:00,45.9,44.3,29.54,SSW,213,0.0,6.0,94,0.01,,---,0.10,VWS V14.01,2013-02-10 14:29:00,
2013-02-10 08:30:00,45.9,44.3,29.54,SSW,213,0.0,6.0,94,0.01,,---,0.10,VWS V14.01,2013-02-10 14:30:00,
2013-02-10 08:34:00,46.0,44.1,29.53,SSE,163,2.0,10.0,93,0.01,,---,0.10,VWS V14.01,2013-02-10 14:34:00,
2013-02-10 08:39:00,46.0,44.1,29.53,SE,142,1.0,10.0,93,0.01,,---,0.10,VWS V14.01,2013-02-10 14:39:00,
2013-02-10 08:40:00,46.0,44.1,29.53,SSE,159,2.0,10.0,93,0.01,,---,0.10,VWS V14.01,2013-02-10 14:40:00,
2013-02-10 08:44:00,46.1,43.9,29.53,WSW,240,5.0,6.0,92,0.01,,---,0.10,VWS V14.01,2013-02-10 14:44:00,
2013-02-10 08:49:00,46.3,44.1,29.52,SE,146,4.0,8.0,92,0.01,,---,0.10,VWS V14.01,2013-02-10 14:49:00,
2013-02-10 08:50:00,46.3,44.1,29.52,SE,146,4.0,8.0,92,0.01,,---,0.10,VWS V14.01,2013-02-10 14:50:00,
2013-02-10 08:54:00,46.5,44.0,29.51,West,275,5.0,7.0,91,0.00,,---,0.10,VWS V14.01,2013-02-10 14:54:00,
2013-02-10 08:59:00,46.7,44.2,29.51,SE,126,2.0,9.0,91,0.00,,---,0.10,VWS V14.01,2013-02-10 14:59:00,
2013-02-10 09:00:00,46.7,44.2,29.51,SE,126,2.0,9.0,91,0.00,,---,0.10,VWS V14.01,2013-02-10 15:00:00,
2013-02-10 09:04:00,46.9,44.1,29.50,SSW,205,6.0,8.0,90,0.00,,---,0.10,VWS V14.01,2013-02-10 15:04:00,
2013-02-10 09:09:00,47.1,44.3,29.50,SSW,196,1.0,3.0,90,0.00,,---,0.10,VWS V14.01,2013-02-10 15:09:00,
2013-02-10 09:10:00,47.2,44.4,29.50,SSW,195,2.0,8.0,90,0.00,,---,0.10,VWS V14.01,2013-02-10 15:10:00,
2013-02-10 09:14:00,47.4,44.6,29.50,South,191,3.0,9.0,90,0.00,,---,0.10,VWS V14.01,2013-02-10 15:14:00,
2013-02-10 09:19:00,47.7,44.6,29.50,SW,229,0.0,2.0,89,0.00,,---,0.10,VWS V14.01,2013-02-10 15:19:00,
2013-02-10 09:20:00,47.6,44.5,29.50,SW,227,1.0,9.0,89,0.00,,---,0.10,VWS V14.01,2013-02-10 15:20:00,
2013-02-10 09:24:00,47.9,44.8,29.49,SSE,164,2.0,10.0,89,0.00,,---,0.10,VWS V14.01,2013-02-10 15:24:00,
2013-02-10 09:29:00,48.1,44.4,29.49,South,173,7.0,10.0,87,0.00,,---,0.10,VWS V14.01,2013-02-10 15:29:00,
2013-02-10 09:30:00,48.1,44.7,29.49,South,179,5.0,10.0,88,0.00,,---,0.10,VWS V14.01,2013-02-10 15:30:00,
2013-02-10 09:34:00,48.4,44.7,29.49,WSW,240,5.0,13.0,87,0.00,,---,0.10,VWS V14.01,2013-02-10 15:34:00,
2013-02-10 09:39:00,48.7,44.7,29.49,SSW,202,1.0,2.0,86,0.00,,---,0.10,VWS V14.01,2013-02-10 15:39:00,
2013-02-10 09:40:00,48.7,44.7,29.49,SSW,202,1.0,13.0,86,0.00,,---,0.10,VWS V14.01,2013-02-10 15:40:00,
2013-02-10 09:44:00,49.0,44.7,29.48,WSW,243,6.0,10.0,85,0.00,,---,0.10,VWS V14.01,2013-02-10 15:44:00,
2013-02-10 09:49:00,49.3,44.0,29.49,WSW,243,4.0,5.0,82,0.00,,---,0.10,VWS V14.01,2013-02-10 15:49:00,
2013-02-10 09:50:00,49.3,44.0,29.49,WSW,254,2.0,11.0,82,0.00,,---,0.10,VWS V14.01,2013-02-10 15:50:00,
2013-02-10 09:54:00,49.5,43.9,29.49,South,191,5.0,14.0,81,0.00,,---,0.10,VWS V14.01,2013-02-10 15:54:00,
2013-02-10 09:59:00,49.6,44.0,29.48,South,187,4.0,4.0,81,0.00,,---,0.10,VWS V14.01,2013-02-10 15:59:00,
2013-02-10 10:00:00,49.6,44.0,29.48,SE,138,0.0,16.0,81,0.00,,---,0.10,VWS V14.01,2013-02-10 16:00:00,
2013-02-10 10:04:00,49.9,43.7,29.48,ESE,115,5.0,8.0,79,0.00,,---,0.10,VWS V14.01,2013-02-10 16:04:00,
2013-02-10 10:09:00,50.3,43.7,29.48,WSW,237,13.0,13.0,78,0.00,,---,0.10,VWS V14.01,2013-02-10 16:09:00,
2013-02-10 10:10:00,50.2,43.6,29.48,SW,217,5.0,13.0,78,0.00,,---,0.10,VWS V14.01,2013-02-10 16:10:00,
2013-02-10 10:14:00,50.5,43.2,29.48,SSW,194,6.0,13.0,76,0.00,,---,0.10,VWS V14.01,2013-02-10 16:14:00,
2013-02-10 10:19:00,50.4,42.4,29.48,SSW,213,7.0,13.0,74,0.00,,---,0.10,VWS V14.01,2013-02-10 16:19:00,
2013-02-10 10:20:00,50.5,42.5,29.48,WSW,239,6.0,16.0,74,0.00,,---,0.10,VWS V14.01,2013-02-10 16:20:00,
2013-02-10 10:24:00,50.4,42.8,29.47,WSW,241,10.0,13.0,75,0.00,,---,0.10,VWS V14.01,2013-02-10 16:24:00,
2013-02-10 10:29:00,50.5,42.2,29.48,WNW,286,11.0,11.0,73,0.00,,---,0.10,VWS V14.01,2013-02-10 16:29:00,
2013-02-10 10:30:00,50.5,42.5,29.48,SSW,195,5.0,13.0,74,0.00,,---,0.10,VWS V14.01,2013-02-10 16:30:00,
2013-02-10 10:34:00,50.6,41.2,29.48,SSW,203,5.0,19.0,70,0.00,,---,0.10,VWS V14.01,2013-02-10 16:34:00,
2013-02-10 10:39:00,50.6,40.8,29.48,South,186,6.0,10.0,69,0.00,,---,0.10,VWS V14.01,2013-02-10 16:39:00,
2013-02-10 10:40:00,50.6,40.8,29.48,South,190,8.0,30.0,69,0.00,,---,0.10,VWS V14.01,2013-02-10 16:40:00,
2013-02-10 10:44:00,50.5,40.0,29.48,SSE,152,4.0,13.0,67,0.00,,---,0.10,VWS V14.01,2013-02-10 16:44:00,
2013-02-10 10:49:00,50.6,40.8,29.48,South,174,6.0,6.0,69,0.00,,---,0.10,VWS V14.01,2013-02-10 16:49:00,
2013-02-10 10:50:00,50.5,40.3,29.48,South,169,4.0,13.0,68,0.00,,---,0.10,VWS V14.01,2013-02-10 16:50:00,
2013-02-10 10:55:00,50.8,40.6,29.48,SSW,202,3.0,12.0,68,0.00,,---,0.10,VWS V14.01,2013-02-10 16:55:00,
2013-02-10 11:00:00,51.1,40.2,29.48,NE,48,3.0,8.0,66,0.00,,---,0.10,VWS V14.01,2013-02-10 17:00:00,
2013-02-10 11:05:00,51.3,40.3,29.48,WSW,237,8.0,15.0,66,0.00,,---,0.10,VWS V14.01,2013-02-10 17:05:00,
2013-02-10 11:10:00,51.5,39.3,29.49,SW,230,6.0,11.0,63,0.00,,---,0.10,VWS V14.01,2013-02-10 17:10:00,
2013-02-10 11:15:00,51.4,38.4,29.49,SSW,206,8.0,12.0,61,0.00,,---,0.10,VWS V14.01,2013-02-10 17:15:00,
2013-02-10 11:20:00,51.2,38.2,29.49,SSE,163,2.0,11.0,61,0.00,,---,0.10,VWS V14.01,2013-02-10 17:20:00,
2013-02-10 11:25:00,51.1,37.7,29.49,SSW,197,2.0,18.0,60,0.00,,---,0.10,VWS V14.01,2013-02-10 17:25:00,
2013-02-10 11:30:00,51.1,38.5,29.49,SE,142,1.0,9.0,62,0.00,,---,0.10,VWS V14.01,2013-02-10 17:30:00,
2013-02-10 11:35:00,51.2,37.8,29.49,WNW,290,5.0,18.0,60,0.00,,---,0.10,VWS V14.01,2013-02-10 17:35:00,
2013-02-10 11:40:00,51.1,37.7,29.49,SW,228,6.0,13.0,60,0.00,,---,0.10,VWS V14.01,2013-02-10 17:40:00,
2013-02-10 11:45:00,50.9,37.1,29.49,SSE,166,2.0,14.0,59,0.00,,---,0.10,VWS V14.01,2013-02-10 17:45:00,
2013-02-10 11:50:00,50.6,36.4,29.49,SSW,205,16.0,16.0,58,0.00,,---,0.10,VWS V14.01,2013-02-10 17:50:00,
2013-02-10 11:55:00,50.4,36.6,29.50,SW,225,5.0,16.0,59,0.00,,---,0.10,VWS V14.01,2013-02-10 17:55:00,
2013-02-10 12:00:00,50.3,37.0,29.50,WSW,238,1.0,6.0,60,0.00,,---,0.10,VWS V14.01,2013-02-10 18:00:00,
2013-02-10 12:05:00,50.0,35.8,29.51,WSW,242,3.0,19.0,58,0.00,,---,0.10,VWS V14.01,2013-02-10 18:05:00,
2013-02-10 12:10:00,49.7,36.0,29.50,WSW,240,5.0,13.0,59,0.00,,---,0.10,VWS V14.01,2013-02-10 18:10:00,
2013-02-10 12:15:00,49.5,35.8,29.50,SW,234,8.0,14.0,59,0.00,,---,0.10,VWS V14.01,2013-02-10 18:15:00,
2013-02-10 12:20:00,49.3,35.6,29.50,South,179,5.0,14.0,59,0.00,,---,0.10,VWS V14.01,2013-02-10 18:20:00,
2013-02-10 12:25:00,49.0,35.3,29.50,SW,232,11.0,14.0,59,0.00,,---,0.10,VWS V14.01,2013-02-10 18:25:00,
2013-02-10 12:30:00,48.8,35.5,29.50,SSW,205,1.0,9.0,60,0.00,,---,0.10,VWS V14.01,2013-02-10 18:30:00,
2013-02-10 12:35:00,48.8,36.0,29.50,SSE,157,2.0,9.0,61,0.00,,---,0.10,VWS V14.01,2013-02-10 18:35:00,
2013-02-10 12:40:00,48.8,36.4,29.49,South,174,10.0,13.0,62,0.00,,---,0.10,VWS V14.01,2013-02-10 18:40:00,
2013-02-10 12:45:00,49.4,37.3,29.49,SW,215,2.0,13.0,63,0.00,,---,0.10,VWS V14.01,2013-02-10 18:45:00,
2013-02-10 12:50:00,49.9,36.6,29.50,SSW,205,6.0,19.0,60,0.00,,---,0.10,VWS V14.01,2013-02-10 18:50:00,
2013-02-10 12:55:00,49.8,36.5,29.50,SW,224,7.0,19.0,60,0.00,,---,0.10,VWS V14.01,2013-02-10 18:55:00,
2013-02-10 13:00:00,50.0,36.2,29.50,SW,218,6.0,14.0,59,0.00,,---,0.10,VWS V14.01,2013-02-10 19:00:00,
2013-02-10 13:05:00,50.2,36.0,29.50,SSW,205,1.0,22.0,58,0.00,,---,0.10,VWS V14.01,2013-02-10 19:05:00,
2013-02-10 13:10:00,50.0,35.4,29.50,SSW,199,2.0,7.0,57,0.00,,---,0.10,VWS V14.01,2013-02-10 19:10:00,
2013-02-10 13:15:00,49.8,35.2,29.51,SSW,204,5.0,21.0,57,0.00,,---,0.10,VWS V14.01,2013-02-10 19:15:00,
2013-02-10 13:20:00,49.9,34.8,29.51,SE,146,5.0,10.0,56,0.00,,---,0.10,VWS V14.01,2013-02-10 19:20:00,
2013-02-10 13:25:00,49.8,34.3,29.51,SW,227,5.0,17.0,55,0.00,,---,0.10,VWS V14.01,2013-02-10 19:25:00,
2013-02-10 13:30:00,49.6,34.1,29.51,WSW,244,15.0,17.0,55,0.00,,---,0.10,VWS V14.01,2013-02-10 19:30:00,
2013-02-10 13:35:00,49.6,34.6,29.51,SSW,199,2.0,17.0,56,0.00,,---,0.10,VWS V14.01,2013-02-10 19:35:00,
2013-02-10 13:40:00,49.9,33.9,29.51,SW,216,5.0,15.0,54,0.00,,---,0.10,VWS V14.01,2013-02-10 19:40:00,
2013-02-10 13:45:00,50.0,34.5,29.51,South,189,12.0,22.0,55,0.00,,---,0.10,VWS V14.01,2013-02-10 19:45:00,
2013-02-10 13:50:00,50.0,33.6,29.51,West,263,6.0,14.0,53,0.00,,---,0.10,VWS V14.01,2013-02-10 19:50:00,
2013-02-10 13:55:00,49.9,33.5,29.52,SSW,207,4.0,14.0,53,0.00,,---,0.10,VWS V14.01,2013-02-10 19:55:00,
2013-02-10 14:00:00,49.3,32.9,29.52,SSW,213,7.0,21.0,53,0.00,,---,0.10,VWS V14.01,2013-02-10 20:00:00,
2013-02-10 14:05:00,48.7,33.3,29.52,SSW,204,7.0,21.0,55,0.00,,---,0.10,VWS V14.01,2013-02-10 20:05:00,
2013-02-10 14:10:00,48.5,33.5,29.52,SSW,213,6.0,13.0,56,0.00,,---,0.10,VWS V14.01,2013-02-10 20:10:00,
2013-02-10 14:15:00,48.4,33.0,29.52,South,190,4.0,19.0,55,0.00,,---,0.10,VWS V14.01,2013-02-10 20:15:00,
2013-02-10 14:20:00,48.3,33.3,29.53,SSE,153,2.0,18.0,56,0.00,,---,0.10,VWS V14.01,2013-02-10 20:20:00,
2013-02-10 14:26:00,48.3,32.4,29.53,North,360,5.0,20.0,54,0.00,,---,0.10,VWS V14.01,2013-02-10 20:26:00,
2013-02-10 14:30:00,48.2,32.3,29.53,SSW,202,7.0,20.0,54,0.00,,---,0.10,VWS V14.01,2013-02-10 20:30:00,
2013-02-10 14:31:00,48.1,32.7,29.53,WSW,238,2.0,11.0,55,0.00,,---,0.10,VWS V14.01,2013-02-10 20:31:00,
2013-02-10 14:36:00,47.9,32.5,29.53,SW,226,3.0,17.0,55,0.00,,---,0.10,VWS V14.01,2013-02-10 20:36:00,
2013-02-10 14:40:00,47.8,32.9,29.53,WSW,244,5.0,17.0,56,0.00,,---,0.10,VWS V14.01,2013-02-10 20:40:00,
2013-02-10 14:41:00,47.8,32.9,29.53,WSW,252,3.0,13.0,56,0.00,,---,0.10,VWS V14.01,2013-02-10 20:41:00,
2013-02-10 14:46:00,47.7,32.8,29.53,West,267,7.0,15.0,56,0.00,,---,0.10,VWS V14.01,2013-02-10 20:46:00,
2013-02-10 14:50:00,47.5,32.6,29.54,South,184,3.0,15.0,56,0.00,,---,0.10,VWS V14.01,2013-02-10 20:50:00,
2013-02-10 14:51:00,47.4,33.0,29.54,SSW,201,5.0,14.0,57,0.00,,---,0.10,VWS V14.01,2013-02-10 20:51:00,
2013-02-10 14:56:00,47.2,32.3,29.55,SW,232,6.0,19.0,56,0.00,,---,0.10,VWS V14.01,2013-02-10 20:56:00,
2013-02-10 15:00:00,46.9,32.0,29.55,WSW,246,11.0,19.0,56,0.00,,---,0.10,VWS V14.01,2013-02-10 21:00:00,
2013-02-10 15:01:00,46.8,32.4,29.55,WNW,298,5.0,14.0,57,0.00,,---,0.10,VWS V14.01,2013-02-10 21:01:00,
2013-02-10 15:06:00,46.5,32.1,29.56,WNW,292,4.0,16.0,57,0.00,,---,0.10,VWS V14.01,2013-02-10 21:06:00,
2013-02-10 15:10:00,46.4,32.4,29.56,South,190,6.0,16.0,58,0.00,,---,0.10,VWS V14.01,2013-02-10 21:10:00,
2013-02-10 15:11:00,46.3,32.3,29.57,SW,228,7.0,21.0,58,0.00,,---,0.10,VWS V14.01,2013-02-10 21:11:00,
2013-02-10 15:16:00,46.0,32.5,29.57,SW,226,7.0,21.0,59,0.00,,---,0.10,VWS V14.01,2013-02-10 21:16:00,
2013-02-10 15:20:00,45.9,32.4,29.57,SW,232,11.0,21.0,59,0.00,,---,0.10,VWS V14.01,2013-02-10 21:20:00,
2013-02-10 15:21:00,45.7,32.2,29.57,SW,221,6.0,21.0,59,0.00,,---,0.10,VWS V14.01,2013-02-10 21:21:00,
2013-02-10 15:26:00,45.3,32.2,29.57,West,272,2.0,21.0,60,0.00,,---,0.10,VWS V14.01,2013-02-10 21:26:00,
2013-02-10 15:30:00,45.2,32.2,29.58,WSW,240,14.0,21.0,60,0.00,,---,0.10,VWS V14.01,2013-02-10 21:30:00,
2013-02-10 15:31:00,45.1,32.1,29.58,SE,128,2.0,15.0,60,0.00,,---,0.10,VWS V14.01,2013-02-10 21:31:00,
2013-02-10 15:36:00,44.9,31.9,29.58,SW,225,5.0,19.0,60,0.00,,---,0.10,VWS V14.01,2013-02-10 21:36:00,
2013-02-10 15:40:00,44.9,32.3,29.58,WSW,254,2.0,19.0,61,0.00,,---,0.10,VWS V14.01,2013-02-10 21:40:00,
2013-02-10 15:41:00,44.8,31.8,29.58,SW,221,8.0,13.0,60,0.00,,---,0.10,VWS V14.01,2013-02-10 21:41:00,
2013-02-10 15:46:00,44.6,31.6,29.59,SSW,203,6.0,20.0,60,0.00,,---,0.10,VWS V14.01,2013-02-10 21:46:00,
2013-02-10 15:50:00,44.6,31.6,29.59,South,177,5.0,21.0,60,0.00,,---,0.10,VWS V14.01,2013-02-10 21:50:00,
2013-02-10 15:51:00,44.5,31.5,29.59,SSW,207,2.0,12.0,60,0.00,,---,0.10,VWS V14.01,2013-02-10 21:51:00,
2013-02-10 15:56:00,44.4,31.4,29.59,SW,227,5.0,17.0,60,0.00,,---,0.10,VWS V14.01,2013-02-10 21:56:00,
2013-02-10 16:00:00,44.4,31.4,29.60,SSW,201,9.0,17.0,60,0.00,,---,0.10,VWS V14.01,2013-02-10 22:00:00,
2013-02-10 16:01:00,44.3,31.3,29.60,SSW,196,4.0,22.0,60,0.00,,---,0.10,VWS V14.01,2013-02-10 22:01:00,
2013-02-10 16:06:00,44.1,31.1,29.61,South,178,11.0,22.0,60,0.00,,---,0.10,VWS V14.01,2013-02-10 22:06:00,
2013-02-10 16:10:00,44.0,31.0,29.60,NW,316,10.0,22.0,60,0.00,,---,0.10,VWS V14.01,2013-02-10 22:10:00,
2013-02-10 16:11:00,43.9,30.9,29.60,WSW,254,4.0,14.0,60,0.00,,---,0.10,VWS V14.01,2013-02-10 22:11:00,
2013-02-10 16:16:00,43.7,30.7,29.61,SSW,198,9.0,16.0,60,0.00,,---,0.10,VWS V14.01,2013-02-10 22:16:00,
2013-02-10 16:20:00,43.6,30.6,29.61,WSW,242,2.0,16.0,60,0.00,,---,0.10,VWS V14.01,2013-02-10 22:20:00,
2013-02-10 16:21:00,43.5,31.0,29.61,SW,233,5.0,17.0,61,0.00,,---,0.10,VWS V14.01,2013-02-10 22:21:00,
2013-02-10 16:26:00,43.4,30.9,29.62,SSW,211,5.0,17.0,61,0.00,,---,0.10,VWS V14.01,2013-02-10 22:26:00,
2013-02-10 16:30:00,43.3,30.8,29.62,West,271,5.0,17.0,61,0.00,,---,0.10,VWS V14.01,2013-02-10 22:30:00,
2013-02-10 16:31:00,43.2,30.7,29.62,WSW,244,7.0,15.0,61,0.00,,---,0.10,VWS V14.01,2013-02-10 22:31:00,
2013-02-10 16:36:00,43.0,30.9,29.63,SW,230,6.0,15.0,62,0.00,,---,0.10,VWS V14.01,2013-02-10 22:36:00,
2013-02-10 16:40:00,42.9,30.8,29.63,WSW,238,4.0,15.0,62,0.00,,---,0.10,VWS V14.01,2013-02-10 22:40:00,
2013-02-10 16:41:00,42.9,30.8,29.63,WSW,246,2.0,10.0,62,0.00,,---,0.10,VWS V14.01,2013-02-10 22:41:00,
2013-02-10 16:46:00,42.8,30.7,29.63,South,172,1.0,12.0,62,0.00,,---,0.10,VWS V14.01,2013-02-10 22:46:00,
2013-02-10 16:50:00,42.7,30.6,29.63,WSW,255,4.0,12.0,62,0.00,,---,0.10,VWS V14.01,2013-02-10 22:50:00,
2013-02-10 16:51:00,42.6,30.5,29.64,WSW,248,3.0,14.0,62,0.00,,---,0.10,VWS V14.01,2013-02-10 22:51:00,
2013-02-10 16:56:00,42.2,29.7,29.64,WSW,239,7.0,14.0,61,0.00,,---,0.10,VWS V14.01,2013-02-10 22:56:00,
2013-02-10 17:00:00,42.1,30.0,29.65,WSW,255,5.0,17.0,62,0.00,,---,0.10,VWS V14.01,2013-02-10 23:00:00,
2013-02-10 17:01:00,41.8,29.8,29.64,WSW,242,6.0,16.0,62,0.00,,---,0.10,VWS V14.01,2013-02-10 23:01:00,
2013-02-10 17:06:00,41.6,30.3,29.65,SW,216,12.0,16.0,64,0.00,,---,0.10,VWS V14.01,2013-02-10 23:06:00,
2013-02-10 17:10:00,41.4,29.8,29.65,WNW,284,7.0,16.0,63,0.00,,---,0.10,VWS V14.01,2013-02-10 23:10:00,
2013-02-10 17:11:00,41.3,29.7,29.66,ESE,123,5.0,14.0,63,0.00,,---,0.10,VWS V14.01,2013-02-10 23:11:00,
2013-02-10 17:16:00,41.1,29.9,29.66,SW,224,4.0,14.0,64,0.00,,---,0.10,VWS V14.01,2013-02-10 23:16:00,
2013-02-10 17:20:00,41.0,29.8,29.67,WSW,257,5.0,14.0,64,0.00,,---,0.10,VWS V14.01,2013-02-10 23:20:00,
2013-02-10 17:21:00,40.9,29.7,29.67,NW,323,5.0,14.0,64,0.00,,---,0.10,VWS V14.01,2013-02-10 23:21:00,
2013-02-10 17:26:00,40.7,29.5,29.67,NW,310,6.0,14.0,64,0.00,,---,0.10,VWS V14.01,2013-02-10 23:26:00,
2013-02-10 17:30:00,40.7,29.9,29.67,SW,219,5.0,14.0,65,0.00,,---,0.10,VWS V14.01,2013-02-10 23:30:00,
2013-02-10 17:31:00,40.6,29.8,29.67,SW,223,2.0,11.0,65,0.00,,---,0.10,VWS V14.01,2013-02-10 23:31:00,
2013-02-10 17:36:00,40.5,30.0,29.67,WSW,257,2.0,12.0,66,0.00,,---,0.10,VWS V14.01,2013-02-10 23:36:00,
2013-02-10 17:40:00,40.5,29.7,29.68,SW,217,4.0,12.0,65,0.00,,---,0.10,VWS V14.01,2013-02-10 23:40:00,
2013-02-10 17:41:00,40.5,30.0,29.68,South,177,4.0,14.0,66,0.00,,---,0.10,VWS V14.01,2013-02-10 23:41:00,
2013-02-10 17:47:00,40.4,30.0,29.69,WSW,237,2.0,14.0,66,0.00,,---,0.10,VWS V14.01,2013-02-10 23:47:00,
2013-02-10 17:50:00,40.3,29.9,29.69,SW,229,2.0,14.0,66,0.00,,---,0.10,VWS V14.01,2013-02-10 23:50:00,
2013-02-10 17:51:00,40.2,29.8,29.69,WSW,254,7.0,11.0,66,0.00,,---,0.10,VWS V14.01,2013-02-10 23:51:00,
2013-02-10 17:57:00,40.0,29.9,29.70,SW,235,11.0,18.0,67,0.00,,---,0.10,VWS V14.01,2013-02-10 23:57:00,
2013-02-10 18:00:00,39.8,29.8,29.70,South,184,9.0,18.0,67,0.00,,---,0.10,VWS V14.01,2013-02-11 00:00:00,
2013-02-10 18:02:00,39.7,30.0,29.70,West,271,5.0,12.0,68,0.00,,---,0.10,VWS V14.01,2013-02-11 00:02:00,
2013-02-10 18:07:00,39.6,31.3,29.70,WSW,240,4.0,12.0,72,0.00,,---,0.10,VWS V14.01,2013-02-11 00:07:00,
2013-02-10 18:10:00,39.5,29.8,29.71,West,273,7.0,12.0,68,0.00,,---,0.10,VWS V14.01,2013-02-11 00:10:00,
2013-02-10 18:12:00,39.4,30.1,29.71,SW,236,0.0,11.0,69,0.00,,---,0.10,VWS V14.01,2013-02-11 00:12:00,
2013-02-10 18:17:00,39.3,30.0,29.71,SW,226,4.0,11.0,69,0.00,,---,0.10,VWS V14.01,2013-02-11 00:17:00,
2013-02-10 18:20:00,39.3,30.0,29.71,NNW,331,5.0,11.0,69,0.00,,---,0.10,VWS V14.01,2013-02-11 00:20:00,
2013-02-10 18:22:00,39.2,29.9,29.71,SW,217,2.0,12.0,69,0.00,,---,0.10,VWS V14.01,2013-02-11 00:22:00,
2013-02-10 18:27:00,39.2,29.9,29.72,West,273,12.0,12.0,69,0.00,,---,0.10,VWS V14.01,2013-02-11 00:27:00,
2013-02-10 18:30:00,39.2,29.5,29.72,WNW,296,6.0,12.0,68,0.00,,---,0.10,VWS V14.01,2013-02-11 00:30:00,
2013-02-10 18:32:00,39.1,29.5,29.73,WSW,240,5.0,12.0,68,0.00,,---,0.10,VWS V14.01,2013-02-11 00:32:00,
2013-02-10 18:37:00,39.0,29.0,29.73,West,271,6.0,20.0,67,0.00,,---,0.10,VWS V14.01,2013-02-11 00:37:00,
2013-02-10 18:40:00,39.0,29.0,29.73,WNW,294,1.0,20.0,67,0.00,,---,0.10,VWS V14.01,2013-02-11 00:40:00,
2013-02-10 18:42:00,38.8,28.8,29.73,West,279,5.0,16.0,67,0.00,,---,0.10,VWS V14.01,2013-02-11 00:42:00,
2013-02-10 18:47:00,38.6,29.0,29.74,WSW,238,2.0,18.0,68,0.00,,---,0.10,VWS V14.01,2013-02-11 00:47:00,
2013-02-10 18:50:00,38.5,28.9,29.74,West,273,15.0,18.0,68,0.00,,---,0.10,VWS V14.01,2013-02-11 00:50:00,
2013-02-10 18:52:00,38.4,28.8,29.75,East,85,4.0,15.0,68,0.00,,---,0.10,VWS V14.01,2013-02-11 00:52:00,
2013-02-10 18:57:00,38.2,28.6,29.75,SSW,196,3.0,15.0,68,0.00,,---,0.10,VWS V14.01,2013-02-11 00:57:00,
2013-02-10 19:00:00,38.2,28.9,29.75,SSW,207,5.0,16.0,69,0.00,,---,0.10,VWS V14.01,2013-02-11 01:00:00,
2013-02-10 19:02:00,38.1,28.8,29.75,West,259,8.0,13.0,69,0.00,,---,0.10,VWS V14.01,2013-02-11 01:02:00,
2013-02-10 19:07:00,37.9,28.6,29.75,West,267,6.0,13.0,69,0.00,,---,0.10,VWS V14.01,2013-02-11 01:07:00,
2013-02-10 19:10:00,37.9,28.6,29.75,South,185,7.0,13.0,69,0.00,,---,0.10,VWS V14.01,2013-02-11 01:10:00,
2013-02-10 19:12:00,37.8,28.6,29.75,SW,231,8.0,12.0,69,0.00,,---,0.10,VWS V14.01,2013-02-11 01:12:00,
2013-02-10 19:17:00,37.7,28.5,29.75,NW,304,6.0,23.0,69,0.00,,---,0.10,VWS V14.01,2013-02-11 01:17:00,
2013-02-10 19:20:00,37.7,28.5,29.75,SW,217,5.0,23.0,69,0.00,,---,0.10,VWS V14.01,2013-02-11 01:20:00,
2013-02-10 19:22:00,37.6,28.4,29.75,SSE,147,4.0,11.0,69,0.00,,---,0.10,VWS V14.01,2013-02-11 01:22:00,
2013-02-10 19:27:00,37.5,28.3,29.76,SW,234,2.0,14.0,69,0.00,,---,0.10,VWS V14.01,2013-02-11 01:27:00,
2013-02-10 19:30:00,37.5,28.3,29.76,WNW,295,7.0,14.0,69,0.00,,---,0.10,VWS V14.01,2013-02-11 01:30:00,
2013-02-10 19:32:00,37.5,27.9,29.76,WSW,255,7.0,13.0,68,0.00,,---,0.10,VWS V14.01,2013-02-11 01:32:00,
2013-02-10 19:37:00,37.5,27.9,29.77,WSW,243,3.0,21.0,68,0.00,,---,0.10,VWS V14.01,2013-02-11 01:37:00,
2013-02-10 19:40:00,37.5,27.9,29.77,WSW,247,8.0,21.0,68,0.00,,---,0.10,VWS V14.01,2013-02-11 01:40:00,
2013-02-10 19:42:00,37.4,27.5,29.77,SW,236,6.0,20.0,67,0.00,,---,0.10,VWS V14.01,2013-02-11 01:42:00,
2013-02-10 19:47:00,37.3,26.6,29.77,SSW,207,5.0,20.0,65,0.00,,---,0.10,VWS V14.01,2013-02-11 01:47:00,
2013-02-10 19:50:00,37.3,26.2,29.78,West,276,4.0,20.0,64,0.00,,---,0.10,VWS V14.01,2013-02-11 01:50:00,
2013-02-10 19:52:00,37.2,26.2,29.78,WSW,254,19.0,21.0,64,0.00,,---,0.10,VWS V14.01,2013-02-11 01:52:00,
2013-02-10 19:57:00,37.1,25.7,29.79,West,261,4.0,21.0,63,0.00,,---,0.10,VWS V14.01,2013-02-11 01:57:00,
2013-02-10 20:00:00,37.1,25.7,29.79,North,360,5.0,21.0,63,0.00,,---,0.10,VWS V14.01,2013-02-11 02:00:00,
2013-02-10 20:02:00,37.0,25.6,29.79,WSW,252,8.0,9.0,63,0.00,,---,0.10,VWS V14.01,2013-02-11 02:02:00,
2013-02-10 20:07:00,37.0,26.0,29.79,NW,319,2.0,14.0,64,0.00,,---,0.10,VWS V14.01,2013-02-11 02:07:00,
2013-02-10 20:10:00,36.9,25.9,29.79,WSW,250,8.0,14.0,64,0.00,,---,0.10,VWS V14.01,2013-02-11 02:10:00,
2013-02-10 20:12:00,36.9,26.2,29.79,WSW,237,4.0,10.0,65,0.00,,---,0.10,VWS V14.01,2013-02-11 02:12:00,
2013-02-10 20:17:00,36.9,26.2,29.79,West,281,7.0,14.0,65,0.00,,---,0.10,VWS V14.01,2013-02-11 02:17:00,
2013-02-10 20:20:00,36.9,26.2,29.80,WSW,257,7.0,14.0,65,0.00,,---,0.10,VWS V14.01,2013-02-11 02:20:00,
2013-02-10 20:22:00,36.9,25.9,29.80,West,279,8.0,12.0,64,0.00,,---,0.10,VWS V14.01,2013-02-11 02:22:00,
2013-02-10 20:28:00,36.8,25.8,29.80,West,271,9.0,13.0,64,0.00,,---,0.10,VWS V14.01,2013-02-11 02:28:00,
2013-02-10 20:30:00,36.8,25.8,29.80,NNW,327,4.0,13.0,64,0.00,,---,0.10,VWS V14.01,2013-02-11 02:30:00,
2013-02-10 20:33:00,36.8,25.4,29.81,WSW,243,10.0,14.0,63,0.00,,---,0.10,VWS V14.01,2013-02-11 02:33:00,
2013-02-10 20:38:00,36.8,25.4,29.81,SSW,211,4.0,14.0,63,0.00,,---,0.10,VWS V14.01,2013-02-11 02:38:00,
2013-02-10 20:40:00,36.8,25.4,29.81,WSW,252,12.0,14.0,63,0.00,,---,0.10,VWS V14.01,2013-02-11 02:40:00,
2013-02-10 20:43:00,36.8,25.4,29.81,SW,226,7.0,15.0,63,0.00,,---,0.10,VWS V14.01,2013-02-11 02:43:00,
2013-02-10 20:48:00,36.8,25.4,29.81,WSW,247,3.0,15.0,63,0.00,,---,0.10,VWS V14.01,2013-02-11 02:48:00,
2013-02-10 20:50:00,36.8,25.4,29.81,SW,235,5.0,15.0,63,0.00,,---,0.10,VWS V14.01,2013-02-11 02:50:00,
2013-02-10 20:53:00,36.8,25.8,29.82,WNW,293,11.0,11.0,64,0.00,,---,0.10,VWS V14.01,2013-02-11 02:53:00,
2013-02-10 20:58:00,36.8,25.8,29.82,NW,326,6.0,12.0,64,0.00,,---,0.10,VWS V14.01,2013-02-11 02:58:00,
2013-02-10 21:00:00,36.8,25.8,29.82,West,269,2.0,12.0,64,0.00,,---,0.10,VWS V14.01,2013-02-11 03:00:00,
2013-02-10 21:03:00,36.8,25.8,29.82,WSW,246,4.0,10.0,64,0.00,,---,0.10,VWS V14.01,2013-02-11 03:03:00,
2013-02-10 21:08:00,36.8,25.8,29.83,WNW,289,5.0,10.0,64,0.00,,---,0.10,VWS V14.01,2013-02-11 03:08:00,
2013-02-10 21:10:00,36.8,25.8,29.83,SW,221,4.0,10.0,64,0.00,,---,0.10,VWS V14.01,2013-02-11 03:10:00,
2013-02-10 21:13:00,36.8,26.1,29.83,SW,227,4.0,11.0,65,0.00,,---,0.10,VWS V14.01,2013-02-11 03:13:00,
2013-02-10 21:18:00,36.8,26.1,29.83,SW,228,6.0,15.0,65,0.00,,---,0.10,VWS V14.01,2013-02-11 03:18:00,
2013-02-10 21:20:00,36.8,26.1,29.83,WSW,255,5.0,15.0,65,0.00,,---,0.10,VWS V14.01,2013-02-11 03:20:00,
2013-02-10 21:23:00,36.8,26.1,29.84,WNW,284,2.0,11.0,65,0.00,,---,0.10,VWS V14.01,2013-02-11 03:23:00,
2013-02-10 21:28:00,36.8,26.1,29.84,NW,304,1.0,11.0,65,0.00,,---,0.10,VWS V14.01,2013-02-11 03:28:00,
2013-02-10 21:30:00,36.8,26.5,29.84,WNW,285,5.0,11.0,66,0.00,,---,0.10,VWS V14.01,2013-02-11 03:30:00,
2013-02-10 21:33:00,36.8,26.5,29.84,WSW,242,2.0,9.0,66,0.00,,---,0.10,VWS V14.01,2013-02-11 03:33:00,
2013-02-10 21:38:00,36.7,26.4,29.84,WSW,239,5.0,12.0,66,0.00,,---,0.10,VWS V14.01,2013-02-11 03:38:00,
2013-02-10 21:40:00,36.7,26.4,29.84,West,271,6.0,12.0,66,0.00,,---,0.10,VWS V14.01,2013-02-11 03:40:00,
2013-02-10 21:43:00,36.7,26.4,29.85,WNW,290,7.0,11.0,66,0.00,,---,0.10,VWS V14.01,2013-02-11 03:43:00,
2013-02-10 21:48:00,36.6,26.3,29.86,WSW,251,3.0,14.0,66,0.00,,---,0.10,VWS V14.01,2013-02-11 03:48:00,
2013-02-10 21:50:00,36.6,26.3,29.86,WNW,282,5.0,14.0,66,0.00,,---,0.10,VWS V14.01,2013-02-11 03:50:00,
2013-02-10 21:53:00,36.5,25.9,29.86,West,261,4.0,11.0,65,0.00,,---,0.10,VWS V14.01,2013-02-11 03:53:00,
2013-02-10 21:58:00,36.5,26.2,29.86,WNW,293,5.0,15.0,66,0.00,,---,0.10,VWS V14.01,2013-02-11 03:58:00,
2013-02-10 22:00:00,36.5,26.2,29.87,WSW,253,3.0,15.0,66,0.00,,---,0.10,VWS V14.01,2013-02-11 04:00:00,
2013-02-10 22:03:00,36.4,26.1,29.87,NW,313,1.0,8.0,66,0.00,,---,0.10,VWS V14.01,2013-02-11 04:03:00,
2013-02-10 22:08:00,36.4,26.1,29.88,North,360,2.0,8.0,66,0.00,,---,0.10,VWS V14.01,2013-02-11 04:08:00,
2013-02-10 22:10:00,36.3,26.0,29.88,North,5,4.0,8.0,66,0.00,,---,0.10,VWS V14.01,2013-02-11 04:10:00,
2013-02-10 22:13:00,36.3,26.0,29.88,SW,229,10.0,10.0,66,0.00,,---,0.10,VWS V14.01,2013-02-11 04:13:00,
2013-02-10 22:18:00,36.1,25.9,29.88,West,275,5.0,12.0,66,0.00,,---,0.10,VWS V14.01,2013-02-11 04:18:00,
2013-02-10 22:20:00,36.1,25.9,29.88,WSW,252,3.0,17.0,66,0.00,,---,0.10,VWS V14.01,2013-02-11 04:20:00,
2013-02-10 22:23:00,36.0,25.8,29.88,SE,134,2.0,11.0,66,0.00,,---,0.10,VWS V14.01,2013-02-11 04:23:00,
2013-02-10 22:28:00,35.8,25.6,29.88,WSW,244,4.0,12.0,66,0.00,,---,0.10,VWS V14.01,2013-02-11 04:28:00,
2013-02-10 22:30:00,35.7,25.5,29.88,WSW,253,5.0,12.0,66,0.00,,---,0.10,VWS V14.01,2013-02-11 04:30:00,
2013-02-10 22:33:00,35.7,25.5,29.89,WSW,238,1.0,13.0,66,0.00,,---,0.10,VWS V14.01,2013-02-11 04:33:00,
2013-02-10 22:38:00,35.5,25.3,29.89,WSW,252,7.0,13.0,66,0.00,,---,0.10,VWS V14.01,2013-02-11 04:38:00,
2013-02-10 22:40:00,35.5,25.3,29.89,West,264,11.0,13.0,66,0.00,,---,0.10,VWS V14.01,2013-02-11 04:40:00,
2013-02-10 22:43:00,35.5,25.3,29.89,South,178,1.0,16.0,66,0.00,,---,0.10,VWS V14.01,2013-02-11 04:43:00,
2013-02-10 22:48:00,35.4,25.2,29.90,SW,236,4.0,16.0,66,0.00,,---,0.10,VWS V14.01,2013-02-11 04:48:00,
2013-02-10 22:50:00,35.4,25.2,29.90,SW,234,1.0,16.0,66,0.00,,---,0.10,VWS V14.01,2013-02-11 04:50:00,
2013-02-10 22:53:00,35.4,25.2,29.90,SSW,198,10.0,15.0,66,0.00,,---,0.10,VWS V14.01,2013-02-11 04:53:00,
2013-02-10 22:58:00,35.5,25.6,29.90,West,267,4.0,15.0,67,0.00,,---,0.10,VWS V14.01,2013-02-11 04:58:00,
2013-02-10 23:00:00,35.5,25.6,29.91,WNW,283,2.0,5.0,67,0.00,,---,0.00,VWS V14.01,2013-02-11 05:00:00,
2013-02-10 23:05:00,35.6,25.7,29.91,WSW,247,3.0,12.0,67,0.00,,---,0.00,VWS V14.01,2013-02-11 05:05:00,
2013-02-10 23:10:00,35.8,25.9,29.91,West,265,10.0,11.0,67,0.00,,---,0.00,VWS V14.01,2013-02-11 05:10:00,
2013-02-10 23:15:00,35.8,25.9,29.91,WSW,254,4.0,11.0,67,0.00,,---,0.00,VWS V14.01,2013-02-11 05:15:00,
2013-02-10 23:20:00,35.8,25.9,29.91,WSW,254,4.0,4.0,67,0.00,,---,0.00,VWS V14.01,2013-02-11 05:20:00,
2013-02-10 23:25:00,36.1,26.9,29.91,WSW,242,3.0,10.0,69,0.00,,---,0.00,VWS V14.01,2013-02-11 05:25:00,
2013-02-10 23:30:00,36.1,26.9,29.92,WSW,244,0.0,10.0,69,0.00,,---,0.00,VWS V14.01,2013-02-11 05:30:00,
2013-02-10 23:31:00,36.2,27.0,29.92,WSW,245,1.0,11.0,69,0.00,,---,0.00,VWS V14.01,2013-02-11 05:31:00,
2013-02-10 23:36:00,36.2,27.0,29.92,WNW,297,2.0,13.0,69,0.00,,---,0.00,VWS V14.01,2013-02-11 05:36:00,
2013-02-10 23:40:00,36.3,27.1,29.92,WSW,254,4.0,13.0,69,0.00,,---,0.00,VWS V14.01,2013-02-11 05:40:00,
2013-02-10 23:41:00,36.3,27.5,29.92,SW,226,3.0,6.0,70,0.00,,---,0.00,VWS V14.01,2013-02-11 05:41:00,
2013-02-10 23:46:00,36.3,27.5,29.93,West,259,2.0,8.0,70,0.00,,---,0.00,VWS V14.01,2013-02-11 05:46:00,
2013-02-10 23:50:00,36.4,27.6,29.93,WSW,237,7.0,10.0,70,0.00,,---,0.00,VWS V14.01,2013-02-11 05:50:00,
2013-02-10 23:51:00,36.4,27.6,29.93,SW,228,3.0,10.0,70,0.00,,---,0.00,VWS V14.01,2013-02-11 05:51:00,
2013-02-10 23:56:00,36.5,27.7,29.93,South,184,2.0,10.0,70,0.00,,---,0.00,VWS V14.01,2013-02-11 05:56:00,